Time;durP1;ratioP1;P1;durP2;ratioP2;P2;SDS_P1;SDS_P2;PMS_P1;PMS_P2;Temp;Humidity;BMP_temperature;BMP_pressure;BME280_temperature;BME280_humidity;BME280_pressure;Samples;Min_cycle;Max_cycle;Signal;HPM_P1;HPM_P2
2022/08/28 00:02:19;;;;;;;17.20;5.03;;;15.70;81.70;;;;;;5034052;28;20168;-86
2022/08/28 00:04:45;;;;;;;22.92;4.53;;;15.70;81.60;;;;;;5033724;28;20191;-86
2022/08/28 00:07:10;;;;;;;15.63;5.78;;;15.70;81.50;;;;;;5033857;28;20190;-86
2022/08/28 00:09:36;;;;;;;18.58;4.97;;;15.70;81.30;;;;;;5016608;28;20234;-87
2022/08/28 00:12:03;;;;;;;19.55;4.97;;;15.80;81.40;;;;;;5015957;28;20180;-87
2022/08/28 00:14:28;;;;;;;12.32;4.00;;;15.70;81.50;;;;;;5015723;28;20281;-86
2022/08/28 00:16:54;;;;;;;13.82;4.60;;;15.70;81.80;;;;;;5015928;28;20177;-86
2022/08/28 00:19:22;;;;;;;18.08;4.22;;;15.70;81.50;;;;;;5015772;28;20172;-86
2022/08/28 00:21:48;;;;;;;15.63;4.50;;;15.70;81.40;;;;;;5015862;28;20642;-86
2022/08/28 00:24:14;;;;;;;18.52;4.97;;;15.70;81.30;;;;;;5015883;28;20242;-86
2022/08/28 00:29:24;;;;;;;21.98;5.35;;;15.70;81.60;;;;;;5033719;28;20172;-86
2022/08/28 00:31:49;;;;;;;19.52;4.90;;;15.70;81.70;;;;;;5015699;28;20180;-86
2022/08/28 00:34:15;;;;;;;16.30;4.57;;;15.70;81.80;;;;;;5015718;28;20228;-86
2022/08/28 00:36:41;;;;;;;14.57;4.82;;;15.70;81.70;;;;;;5015833;28;20268;-86
2022/08/28 00:39:07;;;;;;;17.25;4.10;;;15.60;81.80;;;;;;5015584;28;20674;-86
2022/08/28 00:41:35;;;;;;;18.95;5.03;;;15.70;81.70;;;;;;5015541;28;20219;-86
2022/08/28 00:44:14;;;;;;;11.60;3.92;;;15.60;81.90;;;;;;5033212;28;20318;-86
2022/08/28 00:46:44;;;;;;;23.55;5.22;;;15.60;81.90;;;;;;5015889;28;20160;-86
2022/08/28 00:49:11;;;;;;;18.65;4.95;;;15.60;81.90;;;;;;5015880;28;20307;-86
2022/08/28 00:54:23;;;;;;;21.70;4.50;;;15.60;82.20;;;;;;5033182;28;20207;-86
2022/08/28 00:56:49;;;;;;;17.00;4.15;;;15.60;82.00;;;;;;5016000;28;20549;-86
2022/08/28 00:59:18;;;;;;;21.35;5.15;;;15.60;82.10;;;;;;5015360;28;20263;-86
2022/08/28 01:01:46;;;;;;;19.45;4.32;;;15.60;81.80;;;;;;5034064;28;20247;-86
2022/08/28 01:04:15;;;;;;;19.90;4.85;;;15.60;82.00;;;;;;5019250;28;20200;-86
2022/08/28 01:06:43;;;;;;;15.85;4.45;;;15.60;82.00;;;;;;5037047;28;20176;-86
2022/08/28 01:09:11;;;;;;;19.40;4.80;;;15.60;82.20;;;;;;5019321;28;20187;-87
2022/08/28 01:11:41;;;;;;;17.10;4.38;;;15.60;82.20;;;;;;5036960;28;20169;-86
2022/08/28 01:14:07;;;;;;;18.38;5.05;;;15.60;82.10;;;;;;5019261;28;20319;-87
2022/08/28 01:16:35;;;;;;;19.92;3.97;;;15.60;81.90;;;;;;5019275;28;20265;-86
2022/08/28 01:19:03;;;;;;;15.68;4.43;;;15.60;82.00;;;;;;5019179;28;20179;-86
2022/08/28 01:21:38;;;;;;;13.02;4.13;;;15.60;81.90;;;;;;5036745;28;20200;-87
2022/08/28 01:24:13;;;;;;;25.05;5.38;;;15.40;82.20;;;;;;5019516;28;20196;-87
2022/08/28 01:26:38;;;;;;;16.95;4.13;;;15.30;82.20;;;;;;5019040;28;20168;-86
2022/08/28 01:29:06;;;;;;;15.15;4.45;;;15.30;82.50;;;;;;5018999;28;20203;-86
2022/08/28 01:31:31;;;;;;;18.52;4.35;;;15.30;82.50;;;;;;5018887;28;20180;-87
2022/08/28 01:34:00;;;;;;;25.55;4.68;;;15.30;82.50;;;;;;5018716;28;20702;-87
2022/08/28 01:36:27;;;;;;;20.40;6.35;;;15.30;82.30;;;;;;5036617;28;20174;-87
2022/08/28 01:39:00;;;;;;;14.80;4.35;;;15.30;82.40;;;;;;5036606;28;20689;-87
2022/08/28 01:41:25;;;;;;;23.58;3.83;;;15.30;82.20;;;;;;5018719;28;20165;-87
2022/08/28 01:43:52;;;;;;;17.63;4.18;;;15.30;82.20;;;;;;5018570;28;20207;-86
2022/08/28 01:46:18;;;;;;;18.98;4.32;;;15.30;82.20;;;;;;5018554;28;20189;-86
2022/08/28 01:48:44;;;;;;;16.88;3.58;;;15.30;82.20;;;;;;5018572;28;20180;-86
2022/08/28 01:51:11;;;;;;;15.70;4.35;;;15.20;82.30;;;;;;5018535;28;20185;-86
2022/08/28 01:53:38;;;;;;;18.42;3.97;;;15.20;82.40;;;;;;5035954;28;20220;-86
2022/08/28 01:56:08;;;;;;;18.40;4.00;;;15.20;82.30;;;;;;5036445;28;20173;-86
2022/08/28 01:58:34;;;;;;;17.92;3.95;;;15.20;82.40;;;;;;5019195;28;20160;-86
2022/08/28 02:01:00;;;;;;;22.40;4.43;;;15.20;82.20;;;;;;5018263;28;20647;-86
2022/08/28 02:03:26;;;;;;;19.48;4.75;;;15.20;82.20;;;;;;5035954;28;20208;-87
2022/08/28 02:05:52;;;;;;;21.80;4.55;;;15.10;82.30;;;;;;5035918;28;20172;-87
2022/08/28 02:08:18;;;;;;;21.98;4.45;;;15.10;82.30;;;;;;5035916;28;20183;-87
2022/08/28 02:10:44;;;;;;;15.68;4.35;;;15.10;82.30;;;;;;5035895;28;20173;-86
2022/08/28 02:13:11;;;;;;;19.73;3.97;;;15.10;82.40;;;;;;5017645;28;20212;-86
2022/08/28 02:15:38;;;;;;;17.27;4.18;;;15.10;82.40;;;;;;5035766;28;20634;-86
2022/08/28 02:18:05;;;;;;;17.15;4.50;;;15.10;82.30;;;;;;5017973;28;20223;-87
2022/08/28 02:20:32;;;;;;;13.63;4.05;;;15.10;82.10;;;;;;5018029;28;20208;-87
2022/08/28 02:22:58;;;;;;;13.65;3.67;;;15.10;82.00;;;;;;5017991;28;20173;-86
2022/08/28 02:25:24;;;;;;;19.20;4.28;;;15.00;82.00;;;;;;5035590;28;20589;-86
2022/08/28 02:27:49;;;;;;;15.98;4.53;;;14.90;82.00;;;;;;5035405;28;20280;-87
2022/08/28 02:30:16;;;;;;;18.83;4.60;;;14.80;82.40;;;;;;5017931;28;20259;-87
2022/08/28 02:32:43;;;;;;;13.93;3.70;;;14.80;82.30;;;;;;5017607;28;20177;-86
2022/08/28 02:35:10;;;;;;;13.73;4.32;;;14.80;82.50;;;;;;5035434;28;20283;-87
2022/08/28 02:37:37;;;;;;;16.13;3.95;;;14.80;82.40;;;;;;5035297;28;20723;-86
2022/08/28 02:40:03;;;;;;;17.58;4.13;;;14.80;82.50;;;;;;5035304;28;20175;-87
2022/08/28 02:42:29;;;;;;;23.08;3.97;;;14.80;82.40;;;;;;5017784;28;20230;-86
2022/08/28 02:44:54;;;;;;;14.77;4.15;;;14.80;82.50;;;;;;5035171;28;20208;-87
2022/08/28 02:47:20;;;;;;;20.75;4.45;;;14.80;82.50;;;;;;5017484;28;20223;-87
2022/08/28 02:49:45;;;;;;;14.48;4.55;;;14.70;82.40;;;;;;5017732;28;20578;-87
2022/08/28 02:52:12;;;;;;;16.70;3.70;;;14.70;82.50;;;;;;5017789;28;20212;-86
2022/08/28 02:54:38;;;;;;;17.13;4.78;;;14.70;82.50;;;;;;5017289;28;20217;-87
2022/08/28 02:57:06;;;;;;;15.98;3.92;;;14.70;82.30;;;;;;5017383;28;20177;-87
2022/08/28 02:59:35;;;;;;;15.45;3.65;;;14.70;82.30;;;;;;5017144;28;20183;-86
2022/08/28 03:02:03;;;;;;;17.15;4.30;;;14.60;82.40;;;;;;5017210;28;20180;-87
2022/08/28 03:04:30;;;;;;;20.77;4.57;;;14.70;82.40;;;;;;5034837;28;20192;-87
2022/08/28 03:06:56;;;;;;;18.55;4.50;;;14.60;82.40;;;;;;5017518;28;20183;-87
2022/08/28 03:09:22;;;;;;;23.13;4.07;;;14.60;82.60;;;;;;5034689;28;20172;-87
2022/08/28 03:11:48;;;;;;;18.65;3.88;;;14.60;82.50;;;;;;5017034;28;20669;-86
2022/08/28 03:14:13;;;;;;;14.30;3.55;;;14.50;82.40;;;;;;5016733;28;20247;-86
2022/08/28 03:16:39;;;;;;;16.58;3.92;;;14.50;82.30;;;;;;5016989;28;20173;-86
2022/08/28 03:19:04;;;;;;;15.25;4.15;;;14.50;82.20;;;;;;5016841;28;20597;-86
2022/08/28 03:21:30;;;;;;;15.27;4.30;;;14.50;82.10;;;;;;5016857;28;20264;-86
2022/08/28 03:23:55;;;;;;;19.50;4.25;;;14.40;82.10;;;;;;5016833;28;20238;-86
2022/08/28 03:26:22;;;;;;;14.95;4.20;;;14.30;82.50;;;;;;5016189;28;20185;-86
2022/08/28 03:28:51;;;;;;;18.13;4.05;;;14.40;82.50;;;;;;5016885;28;20188;-86
2022/08/28 03:31:21;;;;;;;11.40;3.13;;;14.30;82.40;;;;;;5016739;28;20264;-87
2022/08/28 03:33:47;;;;;;;14.30;4.22;;;14.30;82.40;;;;;;5016460;28;20209;-87
2022/08/28 03:36:15;;;;;;;18.88;4.00;;;14.30;82.30;;;;;;5016569;28;20267;-87
2022/08/28 03:38:42;;;;;;;19.90;4.35;;;14.20;82.20;;;;;;5016408;28;20176;-86
2022/08/28 03:41:13;;;;;;;17.38;3.88;;;14.20;82.30;;;;;;5016446;28;20176;-86
2022/08/28 03:43:39;;;;;;;14.10;3.80;;;14.20;82.60;;;;;;5033828;28;20274;-86
2022/08/28 03:46:06;;;;;;;12.75;3.65;;;14.10;82.80;;;;;;5034265;28;20221;-86
2022/08/28 03:48:36;;;;;;;15.00;3.42;;;14.20;82.70;;;;;;5034204;28;20192;-86
2022/08/28 03:51:11;;;;;;;14.60;3.70;;;14.10;82.70;;;;;;5016304;28;20188;-87
2022/08/28 03:53:37;;;;;;;13.67;3.60;;;14.10;82.80;;;;;;5016183;28;20218;-86
2022/08/28 03:56:07;;;;;;;17.42;3.75;;;14.00;82.80;;;;;;5033961;28;20536;-87
2022/08/28 03:58:33;;;;;;;14.43;3.67;;;14.00;82.90;;;;;;5034201;28;20180;-86
2022/08/28 04:00:59;;;;;;;13.53;3.93;;;14.00;82.90;;;;;;5016178;28;20180;-86
2022/08/28 04:03:24;;;;;;;17.35;5.45;;;14.00;82.90;;;;;;5016095;28;20204;-87
2022/08/28 04:05:50;;;;;;;17.23;4.40;;;14.00;82.90;;;;;;5016506;28;20220;-87
2022/08/28 04:08:18;;;;;;;11.77;3.47;;;14.00;83.00;;;;;;5016028;28;20238;-86
2022/08/28 04:10:44;;;;;;;21.38;4.65;;;13.90;83.50;;;;;;5016081;28;20654;-86
2022/08/28 04:13:11;;;;;;;16.30;3.42;;;13.90;83.70;;;;;;5015862;28;20214;-86
2022/08/28 04:15:36;;;;;;;22.27;4.60;;;14.00;83.50;;;;;;5016047;28;20180;-87
2022/08/28 04:18:02;;;;;;;10.40;3.60;;;13.90;83.50;;;;;;5034102;28;20365;-86
2022/08/28 04:20:27;;;;;;;17.50;4.70;;;13.90;83.70;;;;;;5033522;28;20180;-86
2022/08/28 04:22:53;;;;;;;15.90;3.45;;;13.90;84.00;;;;;;5016067;28;20181;-86
2022/08/28 04:25:20;;;;;;;20.97;4.87;;;13.80;84.50;;;;;;5015780;28;20230;-86
2022/08/28 04:27:46;;;;;;;14.50;3.73;;;13.80;84.80;;;;;;5016247;28;20262;-86
2022/08/28 04:30:12;;;;;;;18.07;4.00;;;13.80;85.00;;;;;;5015821;28;20725;-86
2022/08/28 04:32:39;;;;;;;22.20;4.60;;;13.80;85.40;;;;;;5016112;28;20292;-86
2022/08/28 04:35:07;;;;;;;19.40;4.30;;;13.80;85.50;;;;;;5033244;28;20283;-86
2022/08/28 04:37:33;;;;;;;16.07;3.43;;;13.80;85.10;;;;;;5015693;28;20181;-86
2022/08/28 04:39:58;;;;;;;16.43;3.53;;;13.80;84.90;;;;;;5033277;28;20173;-86
2022/08/28 04:42:24;;;;;;;24.07;5.60;;;13.80;84.60;;;;;;5015873;28;20722;-86
2022/08/28 04:44:54;;;;;;;20.10;4.30;;;13.80;84.80;;;;;;5015553;28;20604;-86
2022/08/28 04:47:22;;;;;;;13.83;4.40;;;13.90;84.80;;;;;;5015587;28;20219;-86
2022/08/28 04:49:48;;;;;;;14.60;4.20;;;13.90;84.90;;;;;;5033604;28;20172;-86
2022/08/28 04:52:14;;;;;;;13.30;4.23;;;14.00;86.10;;;;;;5033182;28;20165;-86
2022/08/28 04:54:40;;;;;;;19.67;4.47;;;14.10;86.30;;;;;;5015477;28;20626;-86
2022/08/28 04:57:05;;;;;;;16.92;4.07;;;14.20;86.30;;;;;;5016322;28;20184;-86
2022/08/28 04:59:31;;;;;;;19.50;4.20;;;14.20;85.90;;;;;;5015491;28;20180;-86
2022/08/28 05:01:57;;;;;;;15.13;4.00;;;14.30;86.60;;;;;;5015747;28;20314;-86
2022/08/28 05:04:22;;;;;;;14.83;5.40;;;14.40;87.00;;;;;;5015301;28;20200;-86
2022/08/28 05:06:48;;;;;;;12.10;4.37;;;14.50;86.90;;;;;;5015339;28;20239;-86
2022/08/28 05:09:16;;;;;;;18.80;4.67;;;14.50;86.90;;;;;;5033259;28;20180;-86
2022/08/28 05:11:43;;;;;;;17.10;5.37;;;14.50;87.00;;;;;;5015248;28;20372;-86
2022/08/28 05:14:11;;;;;;;15.07;4.17;;;14.50;87.00;;;;;;5032792;28;20200;-86
2022/08/28 05:16:48;;;;;;;14.13;4.37;;;14.60;87.30;;;;;;5015221;28;20536;-86
2022/08/28 05:19:15;;;;;;;21.73;4.63;;;14.60;87.70;;;;;;5015821;28;20227;-86
2022/08/28 05:21:41;;;;;;;11.20;4.03;;;14.60;87.60;;;;;;5015243;28;20181;-87
2022/08/28 05:24:07;;;;;;;20.23;4.60;;;14.70;87.80;;;;;;5015480;28;20203;-86
2022/08/28 05:26:34;;;;;;;13.63;4.20;;;14.80;87.80;;;;;;5032859;28;20177;-86
2022/08/28 05:28:59;;;;;;;20.33;4.90;;;14.80;88.10;;;;;;5015219;28;20200;-86
2022/08/28 05:31:27;;;;;;;17.67;4.70;;;14.90;88.30;;;;;;5015237;28;20185;-86
2022/08/28 05:33:53;;;;;;;17.93;4.53;;;15.00;88.40;;;;;;5015078;28;20205;-86
2022/08/28 05:36:22;;;;;;;17.50;4.33;;;15.10;88.50;;;;;;5015522;28;20267;-86
2022/08/28 05:38:49;;;;;;;14.90;4.27;;;15.10;88.50;;;;;;5015255;28;20645;-86
2022/08/28 05:41:19;;;;;;;15.30;4.53;;;15.20;88.30;;;;;;5015229;28;20268;-86
2022/08/28 05:43:45;;;;;;;13.38;4.35;;;15.20;88.30;;;;;;5032735;28;20239;-86
2022/08/28 05:46:11;;;;;;;16.93;5.07;;;15.20;88.20;;;;;;5015310;28;20173;-86
2022/08/28 05:48:38;;;;;;;15.88;4.20;;;15.20;88.00;;;;;;5034399;28;20176;-86
2022/08/28 05:51:05;;;;;;;18.50;5.07;;;15.20;87.70;;;;;;5036404;28;20181;-86
2022/08/28 05:53:33;;;;;;;14.40;3.92;;;15.20;87.50;;;;;;5018789;28;20216;-86
2022/08/28 05:55:58;;;;;;;16.97;4.03;;;15.30;87.30;;;;;;5018725;28;20181;-86
2022/08/28 05:58:30;;;;;;;16.08;4.20;;;15.30;87.10;;;;;;5018669;28;20547;-86
2022/08/28 06:01:12;;;;;;;14.40;4.32;;;15.30;87.00;;;;;;5018744;28;20176;-86
2022/08/28 06:03:39;;;;;;;16.77;3.95;;;15.30;86.70;;;;;;5036195;28;20200;-86
2022/08/28 06:06:06;;;;;;;15.75;4.30;;;15.40;86.50;;;;;;5035997;28;20188;-86
2022/08/28 06:08:33;;;;;;;9.45;3.38;;;15.50;86.40;;;;;;5036054;28;20208;-85
2022/08/28 06:11:01;;;;;;;20.30;4.93;;;15.50;86.20;;;;;;5018237;28;20185;-85
2022/08/28 06:13:27;;;;;;;17.77;4.30;;;15.60;85.90;;;;;;5018595;28;20262;-86
2022/08/28 06:15:54;;;;;;;17.35;3.83;;;15.70;85.70;;;;;;5018320;28;20173;-86
2022/08/28 06:18:19;;;;;;;13.80;4.03;;;15.70;85.50;;;;;;5036009;28;20172;-86
2022/08/28 06:20:46;;;;;;;14.02;4.18;;;15.80;85.60;;;;;;5018170;28;20231;-85
2022/08/28 06:23:14;;;;;;;14.52;4.05;;;15.80;85.20;;;;;;5035679;28;20200;-86
2022/08/28 06:25:47;;;;;;;16.88;4.63;;;15.80;84.90;;;;;;5035741;28;20192;-86
2022/08/28 06:28:15;;;;;;;20.02;4.28;;;16.00;84.80;;;;;;5017840;28;20200;-86
2022/08/28 06:30:42;;;;;;;13.63;3.78;;;15.90;84.70;;;;;;5017908;28;20184;-86
2022/08/28 06:33:09;;;;;;;13.98;3.85;;;15.90;84.50;;;;;;5035453;28;20567;-86
2022/08/28 06:35:40;;;;;;;9.88;3.50;;;15.90;84.50;;;;;;5017780;28;20204;-86
2022/08/28 06:38:06;;;;;;;13.60;4.35;;;15.90;84.40;;;;;;5035512;28;20528;-85
2022/08/28 06:40:38;;;;;;;19.17;4.43;;;16.00;84.40;;;;;;5017871;28;20183;-86
2022/08/28 06:43:03;;;;;;;19.52;4.78;;;16.00;84.30;;;;;;5017800;28;20196;-85
2022/08/28 06:45:29;;;;;;;13.02;3.80;;;16.20;84.30;;;;;;5017664;28;20184;-85
2022/08/28 06:47:55;;;;;;;13.75;3.80;;;16.20;83.80;;;;;;5017600;28;20670;-85
2022/08/28 06:50:21;;;;;;;18.88;4.40;;;16.30;83.90;;;;;;5017679;28;20173;-85
2022/08/28 06:52:46;;;;;;;12.20;4.32;;;16.40;83.70;;;;;;5035579;28;20172;-88
2022/08/28 06:55:12;;;;;;;12.57;3.72;;;16.40;83.80;;;;;;5018342;28;20205;-85
2022/08/28 06:57:37;;;;;;;14.93;4.18;;;16.50;83.00;;;;;;5017466;28;20177;-85
2022/08/28 07:00:04;;;;;;;15.52;4.15;;;16.50;81.20;;;;;;5016271;28;20172;-85
2022/08/28 07:02:29;;;;;;;12.82;3.63;;;16.60;79.50;;;;;;5017409;28;20226;-86
2022/08/28 07:04:55;;;;;;;15.20;3.42;;;16.70;78.40;;;;;;5017268;28;20193;-87
2022/08/28 07:07:21;;;;;;;20.05;4.05;;;16.80;77.30;;;;;;5017507;28;20262;-86
2022/08/28 07:09:47;;;;;;;18.55;3.70;;;16.90;77.30;;;;;;5017364;28;20247;-85
2022/08/28 07:12:14;;;;;;;14.63;3.53;;;17.00;76.90;;;;;;5018113;28;20191;-86
2022/08/28 07:14:39;;;;;;;16.05;4.20;;;17.20;75.80;;;;;;5034655;28;20201;-85
2022/08/28 07:17:06;;;;;;;17.13;3.83;;;17.20;75.80;;;;;;5017636;28;20543;-86
2022/08/28 07:19:32;;;;;;;13.70;3.75;;;17.20;75.10;;;;;;5017040;28;20177;-86
2022/08/28 07:21:58;;;;;;;13.32;4.10;;;17.30;75.20;;;;;;5034675;28;20173;-86
2022/08/28 07:24:23;;;;;;;14.20;3.90;;;17.40;74.80;;;;;;5016837;28;20192;-86
2022/08/28 07:26:49;;;;;;;21.70;4.28;;;17.50;74.90;;;;;;5016809;28;20260;-86
2022/08/28 07:29:15;;;;;;;19.35;4.10;;;17.50;74.40;;;;;;5017054;28;20281;-85
2022/08/28 07:31:44;;;;;;;9.40;3.35;;;17.50;74.50;;;;;;5034505;28;20599;-87
2022/08/28 07:34:11;;;;;;;18.17;5.18;;;17.40;74.50;;;;;;5016478;28;20204;-87
2022/08/28 07:36:37;;;;;;;13.43;4.32;;;17.50;75.10;;;;;;5016673;28;20215;-87
2022/08/28 07:39:04;;;;;;;18.83;5.00;;;17.50;74.90;;;;;;5016629;28;20172;-88
2022/08/28 07:41:32;;;;;;;14.05;4.70;;;17.50;74.00;;;;;;5017374;28;20175;-87
2022/08/28 07:46:43;;;;;;;13.63;3.65;;;17.90;72.90;;;;;;5034768;28;20204;-88
2022/08/28 07:49:09;;;;;;;14.05;3.95;;;18.10;71.60;;;;;;5033957;28;20177;-87
2022/08/28 07:51:35;;;;;;;15.98;3.78;;;18.20;69.90;;;;;;5034018;28;20657;-87
2022/08/28 07:54:02;;;;;;;12.88;3.67;;;18.20;68.90;;;;;;5033985;28;20205;-86
2022/08/28 07:56:29;;;;;;;8.38;3.42;;;18.20;69.00;;;;;;5016435;28;20227;-86
2022/08/28 07:58:58;;;;;;;11.73;4.00;;;18.10;68.80;;;;;;5016147;28;20173;-87
2022/08/28 08:01:28;;;;;;;12.45;3.95;;;18.00;68.70;;;;;;5016189;28;20181;-87
2022/08/28 08:03:54;;;;;;;13.63;3.60;;;18.00;68.60;;;;;;5033756;28;20188;-87
2022/08/28 08:06:20;;;;;;;11.68;3.80;;;18.10;69.60;;;;;;5016088;28;20189;-87
2022/08/28 08:08:46;;;;;;;13.43;4.00;;;18.20;69.50;;;;;;5016089;28;20319;-87
2022/08/28 08:11:16;;;;;;;10.77;3.45;;;18.40;68.50;;;;;;5033511;28;20184;-87
2022/08/28 08:13:42;;;;;;;7.50;3.28;;;18.70;68.80;;;;;;5016176;28;20583;-87
2022/08/28 08:16:12;;;;;;;11.50;3.92;;;18.50;68.70;;;;;;5016926;28;20172;-88
2022/08/28 08:18:40;;;;;;;14.45;3.88;;;18.50;68.90;;;;;;5016170;28;20172;-88
2022/08/28 08:21:08;;;;;;;17.45;4.70;;;18.50;70.00;;;;;;5016050;28;20273;-88
2022/08/28 08:23:36;;;;;;;9.65;4.13;;;18.60;70.20;;;;;;5033912;28;20189;-88
2022/08/28 08:26:05;;;;;;;13.25;4.03;;;18.70;69.50;;;;;;5015747;28;20269;-88
2022/08/28 08:28:33;;;;;;;9.23;3.25;;;18.80;69.30;;;;;;5033328;28;20189;-88
2022/08/28 08:31:11;;;;;;;20.20;3.80;;;19.00;69.70;;;;;;5015816;28;20188;-87
2022/08/28 08:33:39;;;;;;;12.82;2.88;;;18.80;67.80;;;;;;5016288;28;20212;-87
2022/08/28 08:36:05;;;;;;;13.65;3.75;;;18.80;67.80;;;;;;5033728;28;20191;-85
2022/08/28 08:38:33;;;;;;;11.02;3.75;;;18.70;68.50;;;;;;5033393;28;20589;-87
2022/08/28 08:41:00;;;;;;;13.63;3.70;;;18.60;67.30;;;;;;5033575;28;20227;-86
2022/08/28 08:43:29;;;;;;;10.85;3.22;;;18.60;67.90;;;;;;5015996;28;20201;-86
2022/08/28 08:45:55;;;;;;;16.20;3.63;;;18.80;68.10;;;;;;5033248;28;20594;-86
2022/08/28 08:48:37;;;;;;;11.00;3.00;;;19.20;68.40;;;;;;5033177;28;20177;-86
2022/08/28 08:51:21;;;;;;;15.48;4.05;;;19.20;65.00;;;;;;5015618;28;20180;-86
2022/08/28 08:53:57;;;;;;;13.98;3.45;;;19.00;66.00;;;;;;5015504;28;20231;-87
2022/08/28 08:56:22;;;;;;;10.10;3.33;;;19.00;66.90;;;;;;5015546;28;20215;-86
2022/08/28 08:58:53;;;;;;;11.00;3.42;;;19.00;66.20;;;;;;5015598;28;20168;-86
2022/08/28 09:01:30;;;;;;;11.98;4.07;;;19.10;66.80;;;;;;5033462;28;20169;-84
2022/08/28 09:04:21;;;;;;;12.68;3.25;;;19.20;66.10;;;;;;5033660;28;20188;-85
2022/08/28 09:07:14;;;;;;;11.43;3.80;;;19.20;66.30;;;;;;5015819;28;20169;-85
2022/08/28 09:09:45;;;;;;;12.32;3.78;;;19.10;66.40;;;;;;5015782;28;20195;-85
2022/08/28 09:12:23;;;;;;;10.80;3.53;;;19.10;65.90;;;;;;5033539;28;20542;-85
2022/08/28 09:15:09;;;;;;;12.82;4.07;;;18.90;68.00;;;;;;5015688;28;20291;-85
2022/08/28 09:17:37;;;;;;;10.55;3.25;;;18.80;68.20;;;;;;5015863;28;20161;-85
2022/08/28 09:20:07;;;;;;;13.65;3.90;;;18.70;69.60;;;;;;5015773;28;20177;-85
2022/08/28 09:22:33;;;;;;;13.85;4.00;;;18.50;70.60;;;;;;5015776;28;20247;-85
2022/08/28 09:24:59;;;;;;;10.63;3.33;;;18.50;70.20;;;;;;5037250;28;20213;-85
2022/08/28 09:27:28;;;;;;;9.27;3.47;;;18.50;69.40;;;;;;5037489;28;20185;-85
2022/08/28 09:30:04;;;;;;;11.88;3.55;;;18.50;69.80;;;;;;5037163;28;20177;-86
2022/08/28 09:32:55;;;;;;;11.77;4.40;;;18.50;69.90;;;;;;5019404;28;20164;-85
2022/08/28 09:35:30;;;;;;;14.50;3.97;;;18.70;69.00;;;;;;5019235;28;20270;-86
2022/08/28 09:38:15;;;;;;;11.40;3.67;;;18.70;68.40;;;;;;5019124;28;20202;-85
2022/08/28 09:43:44;;;;;;;18.75;4.68;;;19.00;67.70;;;;;;5003604;28;20250;-85
2022/08/28 09:46:23;;;;;;;12.82;3.83;;;18.80;68.80;;;;;;5020209;28;20173;-85
2022/08/28 09:48:51;;;;;;;12.38;3.70;;;18.90;67.50;;;;;;5019180;28;20176;-85
2022/08/28 09:51:19;;;;;;;12.80;3.80;;;19.00;67.50;;;;;;5019537;28;20183;-85
2022/08/28 09:53:51;;;;;;;15.52;3.92;;;19.00;67.10;;;;;;5036715;28;20204;-85
2022/08/28 09:56:39;;;;;;;14.30;4.43;;;18.80;68.60;;;;;;5018680;28;20657;-85
2022/08/28 09:59:05;;;;;;;13.60;4.30;;;18.70;68.80;;;;;;5018697;28;20169;-85
2022/08/28 10:01:40;;;;;;;9.15;3.65;;;18.70;68.50;;;;;;5018589;28;20172;-85
2022/08/28 10:04:21;;;;;;;13.00;4.20;;;18.50;68.60;;;;;;5018735;28;20199;-85
2022/08/28 10:06:59;;;;;;;8.65;3.90;;;18.30;69.30;;;;;;5018396;28;20203;-86
2022/08/28 10:09:53;;;;;;;17.38;4.65;;;18.30;68.60;;;;;;5018427;28;20173;-85
2022/08/28 10:12:43;;;;;;;16.00;4.45;;;18.30;69.20;;;;;;5018857;28;20177;-85
2022/08/28 10:15:25;;;;;;;18.27;4.72;;;18.30;69.50;;;;;;5036347;28;20188;-85
2022/08/28 10:18:12;;;;;;;13.43;4.72;;;18.40;69.40;;;;;;5018593;28;20168;-85
2022/08/28 10:20:57;;;;;;;12.20;5.13;;;18.40;69.10;;;;;;5018261;28;20173;-85
2022/08/28 10:24:01;;;;;;;15.68;4.40;;;18.50;68.60;;;;;;5018346;28;20188;-84
2022/08/28 10:26:33;;;;;;;14.63;4.30;;;18.60;68.20;;;;;;5002896;28;20180;-85
2022/08/28 10:29:02;;;;;;;12.82;4.35;;;18.80;67.50;;;;;;5018664;28;20575;-85
2022/08/28 10:32:05;;;;;;;8.60;4.00;;;19.00;66.40;;;;;;5018605;28;20174;-85
2022/08/28 10:35:18;;;;;;;14.98;5.00;;;19.00;64.80;;;;;;5016236;28;20228;-87
2022/08/28 10:38:12;;;;;;;18.25;5.40;;;19.20;63.70;;;;;;5015902;28;20188;-85
2022/08/28 10:41:00;;;;;;;9.68;4.00;;;19.50;62.20;;;;;;5018118;28;20172;-86
2022/08/28 10:43:33;;;;;;;13.18;4.43;;;19.90;61.80;;;;;;5017553;28;20219;-85
2022/08/28 10:46:08;;;;;;;9.82;3.97;;;19.90;61.00;;;;;;5035782;28;20149;-85
2022/08/28 10:48:59;;;;;;;11.05;4.97;;;20.00;59.40;;;;;;5017955;28;20172;-85
2022/08/28 10:51:38;;;;;;;11.25;3.72;;;19.90;59.60;;;;;;5018370;28;20165;-86
2022/08/28 10:54:15;;;;;;;8.13;3.83;;;19.70;60.90;;;;;;5035019;28;20208;-85
2022/08/28 10:57:08;;;;;;;11.75;4.18;;;19.50;62.40;;;;;;5035235;28;20168;-87
2022/08/28 10:59:35;;;;;;;10.38;3.50;;;19.70;62.60;;;;;;5017572;28;20211;-86
2022/08/28 11:02:05;;;;;;;11.65;4.10;;;19.60;60.70;;;;;;5017631;28;20187;-85
2022/08/28 11:04:31;;;;;;;12.65;4.50;;;19.70;62.30;;;;;;5035358;28;20570;-85
2022/08/28 11:07:02;;;;;;;11.80;4.93;;;19.80;61.30;;;;;;5017559;28;20231;-86
2022/08/28 11:09:48;;;;;;;16.20;4.28;;;19.70;62.30;;;;;;5035284;28;20179;-85
2022/08/28 11:12:18;;;;;;;17.38;4.82;;;19.50;62.80;;;;;;5017418;28;20184;-85
2022/08/28 11:14:48;;;;;;;14.80;5.10;;;19.30;63.50;;;;;;5016963;28;20208;-85
2022/08/28 11:17:29;;;;;;;14.05;4.93;;;19.50;63.80;;;;;;5034845;28;20169;-85
2022/08/28 11:20:16;;;;;;;9.55;4.93;;;19.80;62.40;;;;;;5017028;28;20165;-85
2022/08/28 11:22:47;;;;;;;12.82;4.00;;;20.20;61.90;;;;;;5034678;28;20176;-86
2022/08/28 11:25:28;;;;;;;10.88;4.13;;;20.50;61.20;;;;;;5016985;28;20639;-86
2022/08/28 11:28:38;;;;;;;10.13;4.28;;;20.80;59.40;;;;;;5034544;28;20238;-85
2022/08/28 11:31:03;;;;;;;14.18;5.15;;;20.30;58.50;;;;;;5034404;28;20262;-85
2022/08/28 11:33:48;;;;;;;9.35;4.15;;;20.30;60.20;;;;;;5016902;28;20236;-85
2022/08/28 11:36:22;;;;;;;8.98;4.15;;;20.70;59.30;;;;;;5034566;28;20692;-85
2022/08/28 11:38:50;;;;;;;15.15;4.85;;;20.70;58.00;;;;;;5034914;28;20180;-86
2022/08/28 11:41:21;;;;;;;10.88;4.78;;;20.70;57.70;;;;;;5017156;28;20183;-85
2022/08/28 11:44:09;;;;;;;11.00;4.35;;;20.60;59.60;;;;;;5017487;28;20270;-86
2022/08/28 11:46:37;;;;;;;13.27;5.15;;;21.20;58.00;;;;;;5016778;28;20259;-85
2022/08/28 11:49:27;;;;;;;13.05;4.45;;;21.10;58.40;;;;;;5034349;28;20208;-85
2022/08/28 11:52:11;;;;;;;10.25;4.43;;;20.60;59.10;;;;;;5016519;28;20184;-86
2022/08/28 11:54:53;;;;;;;10.05;4.43;;;20.60;61.60;;;;;;5016465;28;20343;-86
2022/08/28 11:57:42;;;;;;;12.32;3.78;;;20.40;61.80;;;;;;5016479;28;20226;-86
2022/08/28 12:00:28;;;;;;;15.02;4.97;;;20.60;60.90;;;;;;5016308;28;20168;-86
2022/08/28 12:03:10;;;;;;;15.77;5.45;;;20.30;62.20;;;;;;4996161;28;20262;-87
2022/08/28 12:05:52;;;;;;;16.52;5.00;;;20.40;64.10;;;;;;5016396;28;20558;-86
2022/08/28 12:08:43;;;;;;;14.13;4.60;;;21.00;61.40;;;;;;5016272;28;20176;-86
2022/08/28 12:11:09;;;;;;;13.18;3.65;;;21.50;61.60;;;;;;5016082;28;20181;-86
2022/08/28 12:13:51;;;;;;;13.05;4.53;;;21.50;59.20;;;;;;5033908;28;20192;-86
2022/08/28 12:16:17;;;;;;;12.35;4.40;;;20.80;60.50;;;;;;5016005;28;20196;-86
2022/08/28 12:18:45;;;;;;;15.35;4.97;;;20.00;62.60;;;;;;5016419;28;20185;-86
2022/08/28 12:21:16;;;;;;;16.70;4.72;;;19.60;64.70;;;;;;5033634;28;20168;-87
2022/08/28 12:23:54;;;;;;;12.70;4.43;;;19.90;63.50;;;;;;5015845;28;20721;-86
2022/08/28 12:26:34;;;;;;;11.75;4.00;;;19.80;63.40;;;;;;5016059;28;20181;-86
2022/08/28 12:29:20;;;;;;;9.43;4.43;;;19.80;63.20;;;;;;5016121;28;20226;-86
2022/08/28 12:34:51;;;;;;;15.00;4.25;;;19.80;61.60;;;;;;5033358;28;20306;-85
2022/08/28 12:37:41;;;;;;;14.98;4.25;;;19.70;62.80;;;;;;5016508;28;20165;-86
2022/08/28 12:40:14;;;;;;;9.25;3.97;;;19.60;62.90;;;;;;5015755;28;20161;-86
2022/08/28 12:42:58;;;;;;;13.65;4.30;;;19.60;62.80;;;;;;5015733;28;20173;-86
2022/08/28 12:45:38;;;;;;;10.07;4.03;;;19.80;62.90;;;;;;5015649;28;20180;-86
2022/08/28 12:48:30;;;;;;;18.52;4.78;;;20.50;61.20;;;;;;5033240;28;20247;-86
2022/08/28 12:51:10;;;;;;;13.82;4.95;;;20.90;60.60;;;;;;5015555;28;20200;-86
2022/08/28 12:53:39;;;;;;;16.48;4.85;;;20.70;60.00;;;;;;5033105;28;20207;-86
2022/08/28 12:56:08;;;;;;;15.23;4.30;;;20.70;60.00;;;;;;5015461;28;20188;-85
2022/08/28 12:58:36;;;;;;;12.75;4.68;;;21.00;58.90;;;;;;5017282;28;20665;-86
2022/08/28 13:01:07;;;;;;;8.05;3.80;;;20.90;58.60;;;;;;5019820;28;20180;-85
2022/08/28 13:03:40;;;;;;;9.13;4.10;;;21.00;56.10;;;;;;5037282;28;20208;-86
2022/08/28 13:06:08;;;;;;;9.02;4.18;;;20.70;56.00;;;;;;5019666;28;20219;-86
2022/08/28 13:08:35;;;;;;;10.30;5.07;;;20.40;56.70;;;;;;5019461;28;20203;-86
2022/08/28 13:11:01;;;;;;;7.28;3.67;;;20.60;58.20;;;;;;5019755;28;20180;-86